sensor_id;sensor_type;location;lat;lon;timestamp;P1;durP1;ratioP1;P2;durP2;ratioP2
66327;SDS011;53133;52.862;6.602;2022-09-27T00:02:07;8.07;;;1.60;;
66327;SDS011;53133;52.862;6.602;2022-09-27T00:04:32;5.82;;;1.40;;
66327;SDS011;53133;52.862;6.602;2022-09-27T00:06:58;3.08;;;0.90;;
66327;SDS011;53133;52.862;6.602;2022-09-27T00:09:24;6.03;;;1.05;;
66327;SDS011;53133;52.862;6.602;2022-09-27T00:11:50;4.38;;;1.15;;
66327;SDS011;53133;52.862;6.602;2022-09-27T00:14:15;4.45;;;1.20;;
66327;SDS011;53133;52.862;6.602;2022-09-27T00:16:42;4.93;;;1.17;;
66327;SDS011;53133;52.862;6.602;2022-09-27T00:19:10;6.15;;;1.15;;
66327;SDS011;53133;52.862;6.602;2022-09-27T00:21:43;4.35;;;1.00;;
66327;SDS011;53133;52.862;6.602;2022-09-27T00:24:11;3.88;;;1.15;;
66327;SDS011;53133;52.862;6.602;2022-09-27T00:26:37;5.68;;;0.90;;
66327;SDS011;53133;52.862;6.602;2022-09-27T00:29:03;6.85;;;1.45;;
66327;SDS011;53133;52.862;6.602;2022-09-27T00:31:29;5.53;;;0.90;;
66327;SDS011;53133;52.862;6.602;2022-09-27T00:33:56;8.20;;;1.23;;
66327;SDS011;53133;52.862;6.602;2022-09-27T00:36:24;4.45;;;1.20;;
66327;SDS011;53133;52.862;6.602;2022-09-27T00:38:51;2.80;;;1.00;;
66327;SDS011;53133;52.862;6.602;2022-09-27T00:41:19;4.38;;;1.00;;
66327;SDS011;53133;52.862;6.602;2022-09-27T00:43:52;2.53;;;0.90;;
66327;SDS011;53133;52.862;6.602;2022-09-27T00:46:43;4.38;;;0.80;;
66327;SDS011;53133;52.862;6.602;2022-09-27T00:49:18;4.85;;;0.88;;
66327;SDS011;53133;52.862;6.602;2022-09-27T00:51:52;4.65;;;1.00;;
66327;SDS011;53133;52.862;6.602;2022-09-27T00:54:22;3.85;;;1.00;;
66327;SDS011;53133;52.862;6.602;2022-09-27T00:56:51;3.50;;;0.90;;
66327;SDS011;53133;52.862;6.602;2022-09-27T00:59:51;2.63;;;0.68;;
66327;SDS011;53133;52.862;6.602;2022-09-27T01:02:15;3.83;;;1.00;;
66327;SDS011;53133;52.862;6.602;2022-09-27T01:04:41;3.65;;;0.82;;
66327;SDS011;53133;52.862;6.602;2022-09-27T01:07:08;4.22;;;1.00;;
66327;SDS011;53133;52.862;6.602;2022-09-27T01:09:34;3.38;;;0.80;;
66327;SDS011;53133;52.862;6.602;2022-09-27T01:23:44;7.28;;;1.15;;
66327;SDS011;53133;52.862;6.602;2022-09-27T01:39:08;2.97;;;0.90;;
66327;SDS011;53133;52.862;6.602;2022-09-27T01:44:27;3.42;;;0.85;;
66327;SDS011;53133;52.862;6.602;2022-09-27T01:46:54;4.05;;;0.65;;
66327;SDS011;53133;52.862;6.602;2022-09-27T01:49:28;5.07;;;1.00;;
66327;SDS011;53133;52.862;6.602;2022-09-27T01:52:08;3.97;;;0.80;;
66327;SDS011;53133;52.862;6.602;2022-09-27T01:54:46;7.60;;;1.10;;
66327;SDS011;53133;52.862;6.602;2022-09-27T01:57:18;2.63;;;0.70;;
66327;SDS011;53133;52.862;6.602;2022-09-27T01:59:49;2.90;;;0.77;;
66327;SDS011;53133;52.862;6.602;2022-09-27T02:02:38;7.57;;;1.10;;
66327;SDS011;53133;52.862;6.602;2022-09-27T02:05:09;6.25;;;0.95;;
66327;SDS011;53133;52.862;6.602;2022-09-27T02:10:19;5.07;;;1.00;;
66327;SDS011;53133;52.862;6.602;2022-09-27T02:12:57;5.28;;;1.38;;
66327;SDS011;53133;52.862;6.602;2022-09-27T02:15:38;3.55;;;1.10;;
66327;SDS011;53133;52.862;6.602;2022-09-27T02:18:16;4.68;;;0.95;;
66327;SDS011;53133;52.862;6.602;2022-09-27T02:20:51;3.40;;;0.70;;
66327;SDS011;53133;52.862;6.602;2022-09-27T02:23:24;5.20;;;1.02;;
66327;SDS011;53133;52.862;6.602;2022-09-27T02:26:13;2.25;;;0.80;;
66327;SDS011;53133;52.862;6.602;2022-09-27T02:31:19;2.83;;;0.70;;
66327;SDS011;53133;52.862;6.602;2022-09-27T02:33:52;3.95;;;0.98;;
66327;SDS011;53133;52.862;6.602;2022-09-27T02:36:26;3.00;;;0.65;;
66327;SDS011;53133;52.862;6.602;2022-09-27T02:38:53;2.38;;;0.95;;
66327;SDS011;53133;52.862;6.602;2022-09-27T02:41:19;5.68;;;0.85;;
66327;SDS011;53133;52.862;6.602;2022-09-27T02:43:47;5.03;;;0.70;;
66327;SDS011;53133;52.862;6.602;2022-09-27T02:46:20;4.72;;;0.70;;
66327;SDS011;53133;52.862;6.602;2022-09-27T02:54:25;3.10;;;0.82;;
66327;SDS011;53133;52.862;6.602;2022-09-27T03:00:06;4.57;;;0.90;;
66327;SDS011;53133;52.862;6.602;2022-09-27T03:02:48;2.85;;;0.70;;
66327;SDS011;53133;52.862;6.602;2022-09-27T03:05:52;1.92;;;0.70;;
66327;SDS011;53133;52.862;6.602;2022-09-27T03:08:23;3.22;;;0.63;;
66327;SDS011;53133;52.862;6.602;2022-09-27T03:10:49;3.35;;;0.90;;
66327;SDS011;53133;52.862;6.602;2022-09-27T03:13:14;4.35;;;0.90;;
66327;SDS011;53133;52.862;6.602;2022-09-27T03:15:40;3.70;;;0.60;;
66327;SDS011;53133;52.862;6.602;2022-09-27T03:18:06;4.22;;;0.70;;
66327;SDS011;53133;52.862;6.602;2022-09-27T03:20:31;5.40;;;0.73;;
66327;SDS011;53133;52.862;6.602;2022-09-27T03:22:57;6.35;;;0.90;;
66327;SDS011;53133;52.862;6.602;2022-09-27T03:25:23;2.63;;;0.60;;
66327;SDS011;53133;52.862;6.602;2022-09-27T03:27:48;2.00;;;0.60;;
66327;SDS011;53133;52.862;6.602;2022-09-27T03:30:14;2.65;;;0.85;;
66327;SDS011;53133;52.862;6.602;2022-09-27T03:32:43;3.00;;;1.08;;
66327;SDS011;53133;52.862;6.602;2022-09-27T03:35:12;3.72;;;0.75;;
66327;SDS011;53133;52.862;6.602;2022-09-27T03:37:38;2.08;;;0.60;;
66327;SDS011;53133;52.862;6.602;2022-09-27T03:40:05;1.85;;;0.50;;
66327;SDS011;53133;52.862;6.602;2022-09-27T03:42:31;5.60;;;0.55;;
66327;SDS011;53133;52.862;6.602;2022-09-27T03:44:56;3.05;;;0.90;;
66327;SDS011;53133;52.862;6.602;2022-09-27T03:47:22;4.88;;;0.70;;
66327;SDS011;53133;52.862;6.602;2022-09-27T03:49:48;3.47;;;0.70;;
66327;SDS011;53133;52.862;6.602;2022-09-27T03:52:13;2.67;;;0.80;;
66327;SDS011;53133;52.862;6.602;2022-09-27T03:54:40;4.15;;;0.77;;
66327;SDS011;53133;52.862;6.602;2022-09-27T03:57:06;5.65;;;0.75;;
66327;SDS011;53133;52.862;6.602;2022-09-27T03:59:32;3.10;;;0.70;;
66327;SDS011;53133;52.862;6.602;2022-09-27T04:01:58;3.90;;;0.77;;
66327;SDS011;53133;52.862;6.602;2022-09-27T04:04:23;4.18;;;0.90;;
66327;SDS011;53133;52.862;6.602;2022-09-27T04:06:49;3.63;;;0.70;;
66327;SDS011;53133;52.862;6.602;2022-09-27T04:09:15;2.13;;;0.70;;
66327;SDS011;53133;52.862;6.602;2022-09-27T04:11:40;2.75;;;0.80;;
66327;SDS011;53133;52.862;6.602;2022-09-27T04:14:06;0.65;;;0.50;;
66327;SDS011;53133;52.862;6.602;2022-09-27T04:16:33;5.10;;;0.82;;
66327;SDS011;53133;52.862;6.602;2022-09-27T04:18:59;3.10;;;1.00;;
66327;SDS011;53133;52.862;6.602;2022-09-27T04:21:25;2.45;;;0.70;;
66327;SDS011;53133;52.862;6.602;2022-09-27T04:23:51;5.22;;;0.80;;
66327;SDS011;53133;52.862;6.602;2022-09-27T04:26:17;3.42;;;0.73;;
66327;SDS011;53133;52.862;6.602;2022-09-27T04:28:43;5.47;;;0.82;;
66327;SDS011;53133;52.862;6.602;2022-09-27T04:31:10;2.53;;;0.60;;
66327;SDS011;53133;52.862;6.602;2022-09-27T04:33:35;3.83;;;0.75;;
66327;SDS011;53133;52.862;6.602;2022-09-27T04:36:01;2.10;;;0.70;;
66327;SDS011;53133;52.862;6.602;2022-09-27T04:38:45;4.03;;;0.90;;
66327;SDS011;53133;52.862;6.602;2022-09-27T04:41:12;4.15;;;0.80;;
66327;SDS011;53133;52.862;6.602;2022-09-27T04:43:39;2.30;;;0.80;;
66327;SDS011;53133;52.862;6.602;2022-09-27T04:46:05;2.50;;;0.75;;
66327;SDS011;53133;52.862;6.602;2022-09-27T04:48:31;3.03;;;0.70;;
66327;SDS011;53133;52.862;6.602;2022-09-27T04:50:57;1.40;;;0.60;;
66327;SDS011;53133;52.862;6.602;2022-09-27T04:53:26;4.45;;;0.57;;
66327;SDS011;53133;52.862;6.602;2022-09-27T04:55:53;4.82;;;0.60;;
66327;SDS011;53133;52.862;6.602;2022-09-27T04:58:22;3.33;;;0.60;;
66327;SDS011;53133;52.862;6.602;2022-09-27T05:00:49;1.98;;;0.82;;
66327;SDS011;53133;52.862;6.602;2022-09-27T05:03:19;4.22;;;0.57;;
66327;SDS011;53133;52.862;6.602;2022-09-27T05:05:46;2.35;;;0.38;;
66327;SDS011;53133;52.862;6.602;2022-09-27T05:08:12;1.58;;;0.52;;
66327;SDS011;53133;52.862;6.602;2022-09-27T05:10:37;1.45;;;0.52;;
66327;SDS011;53133;52.862;6.602;2022-09-27T05:13:03;2.47;;;0.57;;
66327;SDS011;53133;52.862;6.602;2022-09-27T05:15:29;2.15;;;0.52;;
66327;SDS011;53133;52.862;6.602;2022-09-27T05:17:54;2.50;;;0.70;;
66327;SDS011;53133;52.862;6.602;2022-09-27T05:20:20;4.15;;;0.82;;
66327;SDS011;53133;52.862;6.602;2022-09-27T05:22:46;3.17;;;0.90;;
66327;SDS011;53133;52.862;6.602;2022-09-27T05:25:12;4.25;;;1.20;;
66327;SDS011;53133;52.862;6.602;2022-09-27T05:27:37;4.25;;;0.90;;
66327;SDS011;53133;52.862;6.602;2022-09-27T05:30:03;4.47;;;0.80;;
66327;SDS011;53133;52.862;6.602;2022-09-27T05:32:32;4.35;;;1.02;;
66327;SDS011;53133;52.862;6.602;2022-09-27T05:34:58;4.15;;;0.65;;
66327;SDS011;53133;52.862;6.602;2022-09-27T05:37:24;3.97;;;0.65;;
66327;SDS011;53133;52.862;6.602;2022-09-27T05:39:50;1.60;;;0.95;;
66327;SDS011;53133;52.862;6.602;2022-09-27T05:42:15;1.92;;;0.70;;
66327;SDS011;53133;52.862;6.602;2022-09-27T05:44:41;3.30;;;0.80;;
66327;SDS011;53133;52.862;6.602;2022-09-27T05:47:11;4.18;;;0.98;;
66327;SDS011;53133;52.862;6.602;2022-09-27T05:49:37;3.45;;;0.80;;
66327;SDS011;53133;52.862;6.602;2022-09-27T05:52:04;2.72;;;0.85;;
66327;SDS011;53133;52.862;6.602;2022-09-27T05:54:30;2.78;;;1.00;;
66327;SDS011;53133;52.862;6.602;2022-09-27T05:56:56;3.83;;;0.80;;
66327;SDS011;53133;52.862;6.602;2022-09-27T05:59:25;3.08;;;0.85;;
66327;SDS011;53133;52.862;6.602;2022-09-27T06:01:51;2.55;;;0.80;;
66327;SDS011;53133;52.862;6.602;2022-09-27T06:04:18;3.22;;;1.10;;
66327;SDS011;53133;52.862;6.602;2022-09-27T06:06:44;2.35;;;0.80;;
66327;SDS011;53133;52.862;6.602;2022-09-27T06:09:10;3.42;;;0.98;;
66327;SDS011;53133;52.862;6.602;2022-09-27T06:11:36;3.58;;;0.90;;
66327;SDS011;53133;52.862;6.602;2022-09-27T06:14:02;5.63;;;1.10;;
66327;SDS011;53133;52.862;6.602;2022-09-27T06:16:28;2.38;;;0.77;;
66327;SDS011;53133;52.862;6.602;2022-09-27T06:18:54;4.55;;;0.80;;
66327;SDS011;53133;52.862;6.602;2022-09-27T06:21:19;3.25;;;0.93;;
66327;SDS011;53133;52.862;6.602;2022-09-27T06:23:46;4.80;;;0.90;;
66327;SDS011;53133;52.862;6.602;2022-09-27T06:26:12;3.22;;;0.82;;
66327;SDS011;53133;52.862;6.602;2022-09-27T06:28:38;4.40;;;0.77;;
66327;SDS011;53133;52.862;6.602;2022-09-27T06:31:04;5.10;;;0.88;;
66327;SDS011;53133;52.862;6.602;2022-09-27T06:33:32;5.00;;;1.10;;
66327;SDS011;53133;52.862;6.602;2022-09-27T06:36:02;5.53;;;0.80;;
66327;SDS011;53133;52.862;6.602;2022-09-27T06:38:29;7.10;;;1.00;;
66327;SDS011;53133;52.862;6.602;2022-09-27T06:40:55;3.97;;;1.00;;
66327;SDS011;53133;52.862;6.602;2022-09-27T06:43:25;9.45;;;1.52;;
66327;SDS011;53133;52.862;6.602;2022-09-27T06:45:51;4.93;;;0.95;;
66327;SDS011;53133;52.862;6.602;2022-09-27T06:48:17;3.10;;;1.25;;
66327;SDS011;53133;52.862;6.602;2022-09-27T06:50:44;5.60;;;1.48;;
66327;SDS011;53133;52.862;6.602;2022-09-27T06:53:12;6.38;;;1.10;;
66327;SDS011;53133;52.862;6.602;2022-09-27T06:55:39;3.83;;;0.90;;
66327;SDS011;53133;52.862;6.602;2022-09-27T06:58:05;3.28;;;1.10;;
66327;SDS011;53133;52.862;6.602;2022-09-27T07:00:50;5.68;;;1.05;;
66327;SDS011;53133;52.862;6.602;2022-09-27T07:03:17;5.00;;;1.00;;
66327;SDS011;53133;52.862;6.602;2022-09-27T07:05:53;2.00;;;0.98;;
66327;SDS011;53133;52.862;6.602;2022-09-27T07:08:21;4.68;;;1.00;;
66327;SDS011;53133;52.862;6.602;2022-09-27T07:10:49;3.45;;;1.00;;
66327;SDS011;53133;52.862;6.602;2022-09-27T07:13:14;6.00;;;1.02;;
66327;SDS011;53133;52.862;6.602;2022-09-27T07:15:40;4.82;;;1.15;;
66327;SDS011;53133;52.862;6.602;2022-09-27T07:18:06;5.97;;;1.00;;
66327;SDS011;53133;52.862;6.602;2022-09-27T07:20:33;3.20;;;1.05;;
66327;SDS011;53133;52.862;6.602;2022-09-27T07:23:03;4.30;;;1.35;;
66327;SDS011;53133;52.862;6.602;2022-09-27T07:25:32;5.40;;;1.20;;
66327;SDS011;53133;52.862;6.602;2022-09-27T07:28:01;2.20;;;1.00;;
66327;SDS011;53133;52.862;6.602;2022-09-27T07:30:31;3.10;;;1.10;;
66327;SDS011;53133;52.862;6.602;2022-09-27T07:32:58;5.32;;;1.10;;
66327;SDS011;53133;52.862;6.602;2022-09-27T07:35:26;3.58;;;1.10;;
66327;SDS011;53133;52.862;6.602;2022-09-27T07:37:52;5.15;;;0.90;;
66327;SDS011;53133;52.862;6.602;2022-09-27T07:40:19;5.13;;;1.38;;
66327;SDS011;53133;52.862;6.602;2022-09-27T07:42:44;4.53;;;1.40;;
66327;SDS011;53133;52.862;6.602;2022-09-27T07:45:10;4.43;;;1.20;;
66327;SDS011;53133;52.862;6.602;2022-09-27T07:47:39;3.22;;;1.35;;
66327;SDS011;53133;52.862;6.602;2022-09-27T07:50:06;3.13;;;0.93;;
66327;SDS011;53133;52.862;6.602;2022-09-27T07:52:40;4.22;;;0.88;;
66327;SDS011;53133;52.862;6.602;2022-09-27T07:55:08;4.63;;;1.42;;
66327;SDS011;53133;52.862;6.602;2022-09-27T07:57:35;4.60;;;1.00;;
66327;SDS011;53133;52.862;6.602;2022-09-27T08:00:02;5.47;;;0.90;;
66327;SDS011;53133;52.862;6.602;2022-09-27T08:02:30;5.90;;;1.30;;
66327;SDS011;53133;52.862;6.602;2022-09-27T08:05:00;2.60;;;0.73;;
66327;SDS011;53133;52.862;6.602;2022-09-27T08:07:26;2.42;;;0.75;;
66327;SDS011;53133;52.862;6.602;2022-09-27T08:09:53;5.63;;;0.80;;
66327;SDS011;53133;52.862;6.602;2022-09-27T08:12:19;6.90;;;1.50;;
66327;SDS011;53133;52.862;6.602;2022-09-27T08:14:45;5.07;;;1.02;;
66327;SDS011;53133;52.862;6.602;2022-09-27T08:17:12;1.60;;;0.80;;
66327;SDS011;53133;52.862;6.602;2022-09-27T08:19:38;5.07;;;1.00;;
66327;SDS011;53133;52.862;6.602;2022-09-27T08:22:04;7.57;;;1.00;;
66327;SDS011;53133;52.862;6.602;2022-09-27T08:24:33;4.53;;;1.08;;
66327;SDS011;53133;52.862;6.602;2022-09-27T08:26:59;5.05;;;1.00;;
66327;SDS011;53133;52.862;6.602;2022-09-27T08:29:26;4.50;;;0.68;;
66327;SDS011;53133;52.862;6.602;2022-09-27T08:31:51;2.92;;;0.88;;
66327;SDS011;53133;52.862;6.602;2022-09-27T08:34:18;4.00;;;0.75;;
66327;SDS011;53133;52.862;6.602;2022-09-27T08:36:44;3.10;;;0.82;;
66327;SDS011;53133;52.862;6.602;2022-09-27T08:39:10;2.95;;;0.60;;
66327;SDS011;53133;52.862;6.602;2022-09-27T08:46:50;3.67;;;0.80;;
66327;SDS011;53133;52.862;6.602;2022-09-27T08:52:02;3.42;;;0.50;;
66327;SDS011;53133;52.862;6.602;2022-09-27T08:54:36;3.88;;;0.90;;
66327;SDS011;53133;52.862;6.602;2022-09-27T08:57:09;4.88;;;0.82;;
66327;SDS011;53133;52.862;6.602;2022-09-27T08:59:44;6.18;;;1.00;;
66327;SDS011;53133;52.862;6.602;2022-09-27T09:02:23;4.30;;;0.93;;
66327;SDS011;53133;52.862;6.602;2022-09-27T09:04:51;2.90;;;0.75;;
66327;SDS011;53133;52.862;6.602;2022-09-27T09:21:34;1.00;;;0.50;;
66327;SDS011;53133;52.862;6.602;2022-09-27T09:24:15;3.67;;;0.75;;
66327;SDS011;53133;52.862;6.602;2022-09-27T09:32:06;4.90;;;1.10;;
66327;SDS011;53133;52.862;6.602;2022-09-27T09:34:41;4.57;;;2.50;;
66327;SDS011;53133;52.862;6.602;2022-09-27T09:37:20;5.65;;;2.90;;
66327;SDS011;53133;52.862;6.602;2022-09-27T09:42:30;1.98;;;1.45;;
66327;SDS011;53133;52.862;6.602;2022-09-27T09:45:27;22.92;;;12.65;;
66327;SDS011;53133;52.862;6.602;2022-09-27T09:48:13;5.68;;;2.60;;
66327;SDS011;53133;52.862;6.602;2022-09-27T09:50:53;4.13;;;0.85;;
66327;SDS011;53133;52.862;6.602;2022-09-27T09:56:28;3.30;;;1.00;;
66327;SDS011;53133;52.862;6.602;2022-09-27T09:58:58;2.72;;;0.88;;
66327;SDS011;53133;52.862;6.602;2022-09-27T10:01:39;2.08;;;0.70;;
66327;SDS011;53133;52.862;6.602;2022-09-27T10:04:10;4.00;;;1.20;;
66327;SDS011;53133;52.862;6.602;2022-09-27T10:06:43;1.75;;;0.50;;
66327;SDS011;53133;52.862;6.602;2022-09-27T10:09:30;2.83;;;0.80;;
66327;SDS011;53133;52.862;6.602;2022-09-27T10:11:57;2.03;;;0.65;;
66327;SDS011;53133;52.862;6.602;2022-09-27T10:14:24;3.65;;;0.70;;
66327;SDS011;53133;52.862;6.602;2022-09-27T10:16:57;0.73;;;0.70;;
66327;SDS011;53133;52.862;6.602;2022-09-27T10:19:33;2.35;;;0.68;;
66327;SDS011;53133;52.862;6.602;2022-09-27T10:22:11;3.83;;;0.70;;
66327;SDS011;53133;52.862;6.602;2022-09-27T10:24:53;2.50;;;1.08;;
66327;SDS011;53133;52.862;6.602;2022-09-27T10:27:21;3.72;;;0.70;;
66327;SDS011;53133;52.862;6.602;2022-09-27T10:29:54;2.95;;;0.55;;
66327;SDS011;53133;52.862;6.602;2022-09-27T10:32:27;2.67;;;0.60;;
66327;SDS011;53133;52.862;6.602;2022-09-27T10:35:19;1.42;;;0.50;;
66327;SDS011;53133;52.862;6.602;2022-09-27T10:37:43;3.15;;;0.60;;
66327;SDS011;53133;52.862;6.602;2022-09-27T10:40:24;2.08;;;0.90;;
66327;SDS011;53133;52.862;6.602;2022-09-27T10:42:52;1.60;;;0.77;;
66327;SDS011;53133;52.862;6.602;2022-09-27T10:47:54;2.30;;;0.73;;
66327;SDS011;53133;52.862;6.602;2022-09-27T10:50:24;2.92;;;0.98;;
66327;SDS011;53133;52.862;6.602;2022-09-27T10:55:25;1.75;;;0.60;;
66327;SDS011;53133;52.862;6.602;2022-09-27T10:57:52;1.92;;;0.50;;
66327;SDS011;53133;52.862;6.602;2022-09-27T11:00:21;0.80;;;0.60;;
66327;SDS011;53133;52.862;6.602;2022-09-27T11:03:07;2.00;;;0.90;;
66327;SDS011;53133;52.862;6.602;2022-09-27T11:05:39;2.67;;;1.15;;
66327;SDS011;53133;52.862;6.602;2022-09-27T11:10:42;2.17;;;0.70;;
66327;SDS011;53133;52.862;6.602;2022-09-27T11:18:28;1.25;;;0.45;;
66327;SDS011;53133;52.862;6.602;2022-09-27T11:34:46;4.63;;;0.40;;
66327;SDS011;53133;52.862;6.602;2022-09-27T11:37:31;4.05;;;0.70;;
66327;SDS011;53133;52.862;6.602;2022-09-27T11:42:56;1.77;;;0.45;;
66327;SDS011;53133;52.862;6.602;2022-09-27T11:54:17;0.82;;;0.60;;
66327;SDS011;53133;52.862;6.602;2022-09-27T11:57:12;1.95;;;0.30;;
66327;SDS011;53133;52.862;6.602;2022-09-27T12:08:12;0.43;;;0.40;;
66327;SDS011;53133;52.862;6.602;2022-09-27T12:10:45;2.22;;;0.43;;
66327;SDS011;53133;52.862;6.602;2022-09-27T12:13:13;3.00;;;0.50;;
66327;SDS011;53133;52.862;6.602;2022-09-27T12:15:44;0.80;;;0.50;;
66327;SDS011;53133;52.862;6.602;2022-09-27T12:18:28;0.80;;;0.40;;
66327;SDS011;53133;52.862;6.602;2022-09-27T12:21:01;0.55;;;0.35;;
66327;SDS011;53133;52.862;6.602;2022-09-27T12:26:12;1.15;;;0.43;;
66327;SDS011;53133;52.862;6.602;2022-09-27T12:28:45;0.85;;;0.40;;
66327;SDS011;53133;52.862;6.602;2022-09-27T12:33:59;0.70;;;0.45;;
66327;SDS011;53133;52.862;6.602;2022-09-27T12:36:33;1.10;;;0.50;;
66327;SDS011;53133;52.862;6.602;2022-09-27T12:39:19;1.67;;;0.45;;
66327;SDS011;53133;52.862;6.602;2022-09-27T12:41:52;1.75;;;0.70;;
66327;SDS011;53133;52.862;6.602;2022-09-27T12:44:26;2.08;;;0.52;;
66327;SDS011;53133;52.862;6.602;2022-09-27T12:47:12;2.55;;;0.63;;
66327;SDS011;53133;52.862;6.602;2022-09-27T12:52:31;3.20;;;0.90;;
66327;SDS011;53133;52.862;6.602;2022-09-27T13:13:18;1.77;;;0.60;;
66327;SDS011;53133;52.862;6.602;2022-09-27T13:15:47;2.53;;;0.88;;
66327;SDS011;53133;52.862;6.602;2022-09-27T13:19:15;2.95;;;0.80;;
66327;SDS011;53133;52.862;6.602;2022-09-27T13:21:11;2.88;;;0.55;;
66327;SDS011;53133;52.862;6.602;2022-09-27T13:24:28;3.75;;;0.80;;
66327;SDS011;53133;52.862;6.602;2022-09-27T13:26:54;3.17;;;0.70;;
66327;SDS011;53133;52.862;6.602;2022-09-27T13:29:23;2.00;;;0.57;;
66327;SDS011;53133;52.862;6.602;2022-09-27T13:42:42;4.45;;;0.60;;
66327;SDS011;53133;52.862;6.602;2022-09-27T13:45:29;1.80;;;0.60;;
66327;SDS011;53133;52.862;6.602;2022-09-27T13:47:59;2.20;;;0.70;;
66327;SDS011;53133;52.862;6.602;2022-09-27T13:50:44;3.88;;;0.73;;
66327;SDS011;53133;52.862;6.602;2022-09-27T13:56:01;7.78;;;4.43;;
66327;SDS011;53133;52.862;6.602;2022-09-27T14:01:23;4.38;;;2.80;;
66327;SDS011;53133;52.862;6.602;2022-09-27T14:03:55;2.63;;;1.98;;
66327;SDS011;53133;52.862;6.602;2022-09-27T14:06:33;2.22;;;1.05;;
66327;SDS011;53133;52.862;6.602;2022-09-27T14:09:06;6.90;;;2.95;;
66327;SDS011;53133;52.862;6.602;2022-09-27T14:12:09;4.40;;;0.88;;
66327;SDS011;53133;52.862;6.602;2022-09-27T14:14:36;0.98;;;0.55;;
66327;SDS011;53133;52.862;6.602;2022-09-27T14:17:06;3.45;;;0.80;;
66327;SDS011;53133;52.862;6.602;2022-09-27T14:19:37;1.15;;;0.52;;
66327;SDS011;53133;52.862;6.602;2022-09-27T14:22:09;2.38;;;0.70;;
66327;SDS011;53133;52.862;6.602;2022-09-27T14:24:49;3.22;;;0.30;;
66327;SDS011;53133;52.862;6.602;2022-09-27T14:27:29;0.30;;;0.30;;
66327;SDS011;53133;52.862;6.602;2022-09-27T14:30:13;0.73;;;0.32;;
66327;SDS011;53133;52.862;6.602;2022-09-27T14:32:47;0.60;;;0.40;;
66327;SDS011;53133;52.862;6.602;2022-09-27T14:35:18;1.30;;;0.50;;
66327;SDS011;53133;52.862;6.602;2022-09-27T14:38:04;1.25;;;0.80;;
66327;SDS011;53133;52.862;6.602;2022-09-27T14:40:41;0.30;;;0.30;;
66327;SDS011;53133;52.862;6.602;2022-09-27T14:43:10;0.95;;;0.50;;
66327;SDS011;53133;52.862;6.602;2022-09-27T14:45:41;1.10;;;0.40;;
66327;SDS011;53133;52.862;6.602;2022-09-27T14:48:17;0.55;;;0.40;;
66327;SDS011;53133;52.862;6.602;2022-09-27T14:53:29;0.57;;;0.43;;
66327;SDS011;53133;52.862;6.602;2022-09-27T14:55:58;1.13;;;0.45;;
66327;SDS011;53133;52.862;6.602;2022-09-27T14:58:25;0.52;;;0.40;;
66327;SDS011;53133;52.862;6.602;2022-09-27T15:00:51;1.42;;;0.50;;
66327;SDS011;53133;52.862;6.602;2022-09-27T15:03:27;3.60;;;0.52;;
66327;SDS011;53133;52.862;6.602;2022-09-27T15:05:55;0.90;;;0.60;;
66327;SDS011;53133;52.862;6.602;2022-09-27T15:08:24;1.55;;;0.80;;
66327;SDS011;53133;52.862;6.602;2022-09-27T15:10:54;2.35;;;1.20;;
66327;SDS011;53133;52.862;6.602;2022-09-27T15:13:22;2.00;;;0.68;;
66327;SDS011;53133;52.862;6.602;2022-09-27T15:15:50;6.43;;;3.90;;
66327;SDS011;53133;52.862;6.602;2022-09-27T15:21:08;2.25;;;1.10;;
66327;SDS011;53133;52.862;6.602;2022-09-27T15:23:44;2.80;;;1.00;;
66327;SDS011;53133;52.862;6.602;2022-09-27T15:28:44;3.33;;;1.00;;
66327;SDS011;53133;52.862;6.602;2022-09-27T15:31:13;4.10;;;1.40;;
66327;SDS011;53133;52.862;6.602;2022-09-27T15:33:39;3.13;;;1.10;;
66327;SDS011;53133;52.862;6.602;2022-09-27T15:36:07;6.70;;;5.43;;
66327;SDS011;53133;52.862;6.602;2022-09-27T15:38:38;3.30;;;2.55;;
66327;SDS011;53133;52.862;6.602;2022-09-27T15:41:11;3.50;;;1.35;;
66327;SDS011;53133;52.862;6.602;2022-09-27T15:43:44;3.97;;;1.53;;
66327;SDS011;53133;52.862;6.602;2022-09-27T15:49:13;3.60;;;1.30;;
66327;SDS011;53133;52.862;6.602;2022-09-27T15:51:47;3.47;;;1.55;;
66327;SDS011;53133;52.862;6.602;2022-09-27T15:54:16;4.38;;;1.40;;
66327;SDS011;53133;52.862;6.602;2022-09-27T15:56:43;3.35;;;1.25;;
66327;SDS011;53133;52.862;6.602;2022-09-27T15:59:19;2.13;;;1.40;;
66327;SDS011;53133;52.862;6.602;2022-09-27T16:01:47;2.60;;;1.52;;
66327;SDS011;53133;52.862;6.602;2022-09-27T16:04:16;4.18;;;1.73;;
66327;SDS011;53133;52.862;6.602;2022-09-27T16:06:42;3.78;;;1.60;;
66327;SDS011;53133;52.862;6.602;2022-09-27T16:09:12;5.38;;;1.60;;
66327;SDS011;53133;52.862;6.602;2022-09-27T16:11:43;3.88;;;1.95;;
66327;SDS011;53133;52.862;6.602;2022-09-27T16:14:12;8.75;;;5.72;;
66327;SDS011;53133;52.862;6.602;2022-09-27T16:16:46;11.10;;;7.13;;
66327;SDS011;53133;52.862;6.602;2022-09-27T16:19:15;4.30;;;2.72;;
66327;SDS011;53133;52.862;6.602;2022-09-27T16:21:41;6.40;;;3.38;;
66327;SDS011;53133;52.862;6.602;2022-09-27T16:24:10;3.50;;;2.65;;
66327;SDS011;53133;52.862;6.602;2022-09-27T16:26:36;6.50;;;4.30;;
66327;SDS011;53133;52.862;6.602;2022-09-27T16:29:03;4.97;;;3.47;;
66327;SDS011;53133;52.862;6.602;2022-09-27T16:31:29;7.88;;;5.88;;
66327;SDS011;53133;52.862;6.602;2022-09-27T16:33:55;9.55;;;4.68;;
66327;SDS011;53133;52.862;6.602;2022-09-27T16:36:20;4.63;;;2.72;;
66327;SDS011;53133;52.862;6.602;2022-09-27T16:38:49;9.77;;;6.55;;
66327;SDS011;53133;52.862;6.602;2022-09-27T16:41:15;13.85;;;7.00;;
66327;SDS011;53133;52.862;6.602;2022-09-27T16:43:41;17.45;;;9.20;;
66327;SDS011;53133;52.862;6.602;2022-09-27T16:46:09;14.27;;;8.07;;
66327;SDS011;53133;52.862;6.602;2022-09-27T16:48:37;5.75;;;3.00;;
66327;SDS011;53133;52.862;6.602;2022-09-27T16:51:04;14.85;;;8.38;;
66327;SDS011;53133;52.862;6.602;2022-09-27T16:53:59;22.10;;;11.88;;
66327;SDS011;53133;52.862;6.602;2022-09-27T16:56:24;13.63;;;8.05;;
66327;SDS011;53133;52.862;6.602;2022-09-27T16:58:51;94.43;;;45.40;;
66327;SDS011;53133;52.862;6.602;2022-09-27T17:01:16;118.78;;;57.63;;
66327;SDS011;53133;52.862;6.602;2022-09-27T17:03:43;21.08;;;16.42;;
66327;SDS011;53133;52.862;6.602;2022-09-27T17:06:13;15.75;;;14.10;;
66327;SDS011;53133;52.862;6.602;2022-09-27T17:08:40;8.80;;;7.90;;
66327;SDS011;53133;52.862;6.602;2022-09-27T17:11:05;19.85;;;16.08;;
66327;SDS011;53133;52.862;6.602;2022-09-27T17:13:31;9.70;;;8.40;;
66327;SDS011;53133;52.862;6.602;2022-09-27T17:15:58;5.82;;;3.65;;
66327;SDS011;53133;52.862;6.602;2022-09-27T17:18:27;5.25;;;4.60;;
66327;SDS011;53133;52.862;6.602;2022-09-27T17:20:58;4.03;;;3.38;;
66327;SDS011;53133;52.862;6.602;2022-09-27T17:23:28;4.93;;;2.92;;
66327;SDS011;53133;52.862;6.602;2022-09-27T17:26:00;5.75;;;3.53;;
66327;SDS011;53133;52.862;6.602;2022-09-27T17:28:30;3.85;;;2.50;;
66327;SDS011;53133;52.862;6.602;2022-09-27T17:31:03;7.90;;;4.28;;
66327;SDS011;53133;52.862;6.602;2022-09-27T17:33:32;6.95;;;4.90;;
66327;SDS011;53133;52.862;6.602;2022-09-27T17:35:59;10.18;;;8.15;;
66327;SDS011;53133;52.862;6.602;2022-09-27T17:38:27;8.07;;;6.78;;
66327;SDS011;53133;52.862;6.602;2022-09-27T17:41:03;10.73;;;6.13;;
66327;SDS011;53133;52.862;6.602;2022-09-27T17:43:31;12.57;;;6.65;;
66327;SDS011;53133;52.862;6.602;2022-09-27T17:46:02;18.13;;;14.95;;
66327;SDS011;53133;52.862;6.602;2022-09-27T17:48:29;9.77;;;6.20;;
66327;SDS011;53133;52.862;6.602;2022-09-27T17:51:13;4.13;;;3.40;;
66327;SDS011;53133;52.862;6.602;2022-09-27T17:53:39;6.10;;;4.45;;
66327;SDS011;53133;52.862;6.602;2022-09-27T17:56:05;8.73;;;5.53;;
66327;SDS011;53133;52.862;6.602;2022-09-27T17:58:31;8.32;;;5.18;;
66327;SDS011;53133;52.862;6.602;2022-09-27T18:01:04;7.30;;;5.50;;